createdAt,value
2018-11-25T00:00:31.245Z,83.26
2018-11-25T00:03:00.296Z,84.44
2018-11-25T00:05:29.106Z,84.30
2018-11-25T00:07:57.917Z,83.81
2018-11-25T00:10:27.657Z,84.57
2018-11-25T00:12:56.604Z,83.52
2018-11-25T00:15:25.948Z,83.25
2018-11-25T00:17:55.015Z,83.04
2018-11-25T00:20:24.798Z,85.50
2018-11-25T00:22:54.415Z,84.26
2018-11-25T00:25:24.106Z,84.92
2018-11-25T00:27:55.026Z,83.74
2018-11-25T00:30:23.956Z,83.42
2018-11-25T00:32:53.959Z,83.24
2018-11-25T00:35:22.963Z,84.36
2018-11-25T00:37:52.160Z,83.40
2018-11-25T00:40:21.029Z,84.17
2018-11-25T00:42:50.747Z,83.60
2018-11-25T00:45:20.560Z,84.29
2018-11-25T00:47:50.100Z,82.89
2018-11-25T00:50:18.967Z,82.85
2018-11-25T00:52:47.792Z,83.35
2018-11-25T00:55:18.421Z,82.93
2018-11-25T00:57:48.377Z,82.79
2018-11-25T01:00:18.905Z,83.00
2018-11-25T01:02:49.782Z,82.95
2018-11-25T01:05:18.586Z,83.42
2018-11-25T01:07:47.406Z,83.32
2018-11-25T01:10:17.452Z,83.64
2018-11-25T01:12:46.543Z,83.06
2018-11-25T01:15:17.292Z,83.79
2018-11-25T01:17:46.109Z,84.98
2018-11-25T01:20:18.537Z,84.86
2018-11-25T01:22:48.043Z,84.25
2018-11-25T01:25:17.665Z,83.76
2018-11-25T01:27:46.552Z,83.35
2018-11-25T01:30:17.928Z,85.17
2018-11-25T01:32:46.727Z,83.78
2018-11-25T01:35:15.882Z,84.33
2018-11-25T01:37:44.869Z,84.74
2018-11-25T01:40:16.682Z,84.94
2018-11-25T01:42:46.213Z,84.93
2018-11-25T01:45:20.016Z,85.03
2018-11-25T01:47:49.287Z,83.80
2018-11-25T01:50:18.859Z,83.67
2018-11-25T01:52:48.501Z,84.14
2018-11-25T01:55:19.138Z,84.11
2018-11-25T01:57:48.932Z,83.52
2018-11-25T02:00:20.613Z,84.28
2018-11-25T02:02:50.465Z,84.18
2018-11-25T02:05:25.858Z,84.07
2018-11-25T02:07:54.764Z,84.07
2018-11-25T02:10:24.337Z,85.40
2018-11-25T02:12:53.407Z,86.57
2018-11-25T02:15:23.752Z,86.55
2018-11-25T02:17:52.828Z,87.39
2018-11-25T02:20:23.680Z,88.05
2018-11-25T02:22:53.649Z,87.98
2018-11-25T02:25:23.561Z,87.70
2018-11-25T02:27:52.573Z,86.30
2018-11-25T02:30:21.696Z,86.63
2018-11-25T02:32:52.004Z,86.57
2018-11-25T02:35:21.306Z,88.68
2018-11-25T02:37:50.479Z,88.16
2018-11-25T02:40:19.527Z,88.73
2018-11-25T02:42:48.948Z,89.01
2018-11-25T02:45:18.736Z,88.80
2018-11-25T02:47:47.563Z,88.21
2018-11-25T02:50:33.767Z,88.07
2018-11-25T02:53:05.193Z,87.85
2018-11-25T02:55:34.019Z,87.75
2018-11-25T02:58:03.562Z,87.73
2018-11-25T03:00:34.022Z,87.37
2018-11-25T03:03:02.839Z,88.40
2018-11-25T03:05:31.732Z,87.77
2018-11-25T03:08:00.562Z,87.69
2018-11-25T03:10:30.482Z,87.57
2018-11-25T03:12:59.230Z,87.50
2018-11-25T03:15:28.629Z,87.17
2018-11-25T03:17:57.430Z,87.58
2018-11-25T03:20:26.907Z,86.89
2018-11-25T03:22:55.691Z,87.15
2018-11-25T03:25:25.030Z,87.33
2018-11-25T03:27:54.073Z,86.54
2018-11-25T03:30:23.173Z,86.21
2018-11-25T03:32:53.211Z,86.34
2018-11-25T03:35:22.902Z,86.95
2018-11-25T03:37:52.385Z,87.23
2018-11-25T03:40:21.247Z,86.73
2018-11-25T03:42:50.170Z,86.95
2018-11-25T03:45:21.890Z,86.37
2018-11-25T03:47:51.347Z,86.41
2018-11-25T03:50:22.437Z,86.90
2018-11-25T03:52:51.347Z,86.50
2018-11-25T03:55:20.385Z,86.19
2018-11-25T03:57:50.759Z,86.24
2018-11-25T04:00:21.605Z,86.58
2018-11-25T04:02:52.308Z,86.15
2018-11-25T04:05:22.977Z,86.76
2018-11-25T04:07:51.986Z,85.88
2018-11-25T04:10:21.509Z,86.17
2018-11-25T04:12:50.550Z,86.85
2018-11-25T04:15:20.372Z,86.78
2018-11-25T04:17:49.408Z,86.37
2018-11-25T04:20:19.830Z,85.96
2018-11-25T04:22:48.933Z,86.30
2018-11-25T04:25:18.645Z,85.84
2018-11-25T04:27:47.458Z,86.24
2018-11-25T04:30:47.073Z,85.52
2018-11-25T04:33:15.863Z,85.34
2018-11-25T04:35:45.684Z,85.46
2018-11-25T04:38:14.476Z,85.86
2018-11-25T04:40:43.294Z,86.26
2018-11-25T04:43:12.142Z,86.28
2018-11-25T04:45:41.686Z,86.43
2018-11-25T04:48:10.446Z,86.65
2018-11-25T04:50:39.320Z,86.95
2018-11-25T04:53:08.195Z,86.72
2018-11-25T04:55:37.000Z,87.09
2018-11-25T04:58:07.513Z,86.63
2018-11-25T05:00:36.894Z,86.98
2018-11-25T05:03:06.123Z,87.28
2018-11-25T05:05:35.570Z,86.98
2018-11-25T05:09:08.640Z,86.28
2018-11-25T05:11:37.911Z,86.54
2018-11-25T05:14:07.623Z,86.15
2018-11-25T05:16:36.503Z,85.80
2018-11-25T05:19:05.370Z,86.47
2018-11-25T05:21:35.118Z,86.08
2018-11-25T05:24:04.807Z,85.40
2018-11-25T05:26:33.690Z,86.19
2018-11-25T05:29:02.648Z,85.58
2018-11-25T05:31:31.645Z,85.74
2018-11-25T05:34:01.252Z,85.91
2018-11-25T05:36:31.005Z,85.92
2018-11-25T05:39:05.727Z,85.67
2018-11-25T05:41:34.786Z,85.52
2018-11-25T05:44:04.674Z,85.67
2018-11-25T05:46:33.599Z,86.10
2018-11-25T05:49:02.699Z,85.63
2018-11-25T05:51:31.803Z,86.11
2018-11-25T05:56:50.409Z,85.81
2018-11-25T05:59:20.428Z,86.44
2018-11-25T06:01:50.263Z,86.36
2018-11-25T06:04:20.286Z,85.96
2018-11-25T06:06:49.461Z,85.62
2018-11-25T06:09:20.609Z,85.53
2018-11-25T06:11:49.646Z,85.75
2018-11-25T06:14:19.472Z,85.70
2018-11-25T06:16:48.265Z,85.85
2018-11-25T06:19:17.086Z,85.86
2018-11-25T06:21:46.581Z,85.97
2018-11-25T06:24:16.423Z,85.70
2018-11-25T06:26:45.390Z,85.66
2018-11-25T06:29:14.636Z,85.61
2018-11-25T06:31:43.623Z,85.38
2018-11-25T06:34:15.096Z,85.35
2018-11-25T06:36:44.974Z,85.43
2018-11-25T06:42:46.630Z,84.93
2018-11-25T06:45:32.264Z,84.73
2018-11-25T06:48:01.623Z,84.89
2018-11-25T06:50:30.870Z,84.60
2018-11-25T06:53:00.120Z,84.70
2018-11-25T06:55:29.267Z,84.61
2018-11-25T06:57:59.601Z,85.05
2018-11-25T07:00:29.756Z,84.97
2018-11-25T07:02:59.321Z,84.70
2018-11-25T07:05:29.032Z,84.46
2018-11-25T07:07:58.554Z,85.12
2018-11-25T07:10:28.350Z,84.48
2018-11-25T07:15:55.701Z,84.57
2018-11-25T07:18:27.251Z,84.71
2018-11-25T07:20:57.561Z,84.50
2018-11-25T07:23:28.588Z,84.72
2018-11-25T07:25:58.027Z,84.08
2018-11-25T07:28:36.565Z,84.07
2018-11-25T07:31:06.594Z,83.90
2018-11-25T07:33:36.920Z,84.62
2018-11-25T07:36:07.724Z,84.40
2018-11-25T07:38:41.871Z,84.62
2018-11-25T07:41:11.966Z,84.10
2018-11-25T07:43:41.228Z,83.93
2018-11-25T07:46:10.740Z,83.47
2018-11-25T07:48:40.404Z,83.73
2018-11-25T07:51:09.394Z,83.27
2018-11-25T07:53:39.592Z,83.40
2018-11-25T07:56:08.985Z,83.21
2018-11-25T07:58:39.270Z,82.83
2018-11-25T08:01:08.616Z,82.39
2018-11-25T08:03:37.712Z,81.25
2018-11-25T08:06:07.037Z,81.75
2018-11-25T08:08:39.071Z,81.44
2018-11-25T08:11:08.058Z,81.56
2018-11-25T08:13:37.216Z,81.14
2018-11-25T08:16:07.643Z,81.76
2018-11-25T08:18:36.745Z,81.24
2018-11-25T08:21:07.219Z,81.75
2018-11-25T08:23:37.373Z,81.70
2018-11-25T08:26:06.960Z,81.72
2018-11-25T08:28:36.051Z,81.27
2018-11-25T08:31:05.359Z,81.58
2018-11-25T08:33:34.561Z,81.87
2018-11-25T08:36:04.434Z,82.11
2018-11-25T08:38:33.393Z,82.34
2018-11-25T08:41:02.438Z,82.15
2018-11-25T08:43:31.347Z,81.49
2018-11-25T08:46:01.399Z,81.46
2018-11-25T08:48:30.493Z,81.74
2018-11-25T08:50:59.642Z,81.17
2018-11-25T08:53:28.892Z,81.28
2018-11-25T08:55:59.190Z,81.11
2018-11-25T08:58:29.056Z,80.94
2018-11-25T09:00:58.785Z,81.50
2018-11-25T09:03:27.647Z,81.16
2018-11-25T09:05:57.306Z,80.86
2018-11-25T09:08:26.539Z,81.00
2018-11-25T09:10:58.051Z,81.02
2018-11-25T09:13:27.212Z,80.42
2018-11-25T09:15:57.388Z,80.44
2018-11-25T09:18:26.935Z,79.80
2018-11-25T09:20:56.916Z,80.24
2018-11-25T09:23:26.521Z,79.71
2018-11-25T09:25:56.418Z,79.25
2018-11-25T09:28:26.249Z,78.89
2018-11-25T09:30:55.992Z,79.41
2018-11-25T09:33:26.024Z,78.87
2018-11-25T09:35:56.091Z,78.36
2018-11-25T09:38:24.999Z,78.21
2018-11-25T09:40:59.210Z,78.28
2018-11-25T09:43:23.546Z,77.21
2018-11-25T09:45:53.326Z,77.68
2018-11-25T09:48:22.432Z,76.99
2018-11-25T09:50:51.554Z,76.97
2018-11-25T09:53:20.440Z,77.58
2018-11-25T09:55:49.295Z,77.35
2018-11-25T09:58:25.352Z,76.73
2018-11-25T10:00:48.638Z,76.51
2018-11-25T10:03:18.143Z,76.43
2018-11-25T10:05:47.615Z,76.86
2018-11-25T10:08:16.395Z,76.33
2018-11-25T10:10:52.452Z,76.61
2018-11-25T10:13:14.455Z,76.20
2018-11-25T10:15:43.896Z,76.69
2018-11-25T10:18:12.628Z,76.01
2018-11-25T10:20:44.136Z,76.36
2018-11-25T10:23:13.824Z,76.18
2018-11-25T10:25:42.615Z,76.63
2018-11-25T10:28:11.466Z,75.95
2018-11-25T10:30:40.840Z,75.75
2018-11-25T10:33:10.333Z,75.52
2018-11-25T10:35:39.646Z,75.49
2018-11-25T10:38:08.574Z,75.50
2018-11-25T10:40:37.504Z,76.03
2018-11-25T10:43:06.399Z,75.52
2018-11-25T10:45:35.144Z,75.35
2018-11-25T10:48:04.096Z,75.11
2018-11-25T10:50:33.010Z,75.56
2018-11-25T10:53:01.827Z,75.64
2018-11-25T10:55:30.717Z,75.72
2018-11-25T10:58:00.314Z,75.76
2018-11-25T11:00:38.417Z,76.23
2018-11-25T11:03:14.985Z,76.26
2018-11-25T11:05:50.503Z,76.04
2018-11-25T11:08:20.197Z,76.68
2018-11-25T11:10:50.860Z,76.44
2018-11-25T11:13:20.743Z,75.60
2018-11-25T11:15:52.495Z,76.13
2018-11-25T11:18:22.336Z,75.99
2018-11-25T11:20:53.422Z,75.48
2018-11-25T11:44:43.189Z,75.87
2018-11-25T11:47:12.485Z,75.25
2018-11-25T11:49:41.349Z,75.74
2018-11-25T11:52:10.199Z,75.31
2018-11-25T11:54:39.218Z,75.62
2018-11-25T11:57:08.312Z,74.67
2018-11-25T11:59:38.043Z,75.98
2018-11-25T12:02:07.903Z,75.98
2018-11-25T12:04:37.634Z,75.66
2018-11-25T12:07:06.431Z,74.45
2018-11-25T12:09:35.840Z,75.38
2018-11-25T12:12:04.683Z,75.53
2018-11-25T12:14:33.535Z,75.47
2018-11-25T12:17:02.367Z,74.26
2018-11-25T12:19:43.142Z,75.15
2018-11-25T12:24:52.991Z,74.67
2018-11-25T12:27:22.538Z,74.72
2018-11-25T12:29:52.391Z,74.89
2018-11-25T12:32:22.792Z,74.90
2018-11-25T12:34:51.572Z,74.49
2018-11-25T12:37:20.488Z,74.82
2018-11-25T12:39:49.222Z,75.12
2018-11-25T12:42:18.014Z,75.28
2018-11-25T12:44:47.447Z,74.77
2018-11-25T12:47:18.309Z,75.37
2018-11-25T12:49:47.278Z,75.54
2018-11-25T12:52:16.463Z,75.56
2018-11-25T12:54:45.522Z,74.92
2018-11-25T12:57:14.600Z,75.35
2018-11-25T12:59:44.264Z,75.91
2018-11-25T13:02:13.797Z,75.96
2018-11-25T13:04:42.922Z,75.83
2018-11-25T13:07:12.181Z,75.90
2018-11-25T13:09:41.994Z,75.07
2018-11-25T13:12:10.896Z,75.88
2018-11-25T13:14:40.071Z,75.75
2018-11-25T13:17:09.756Z,76.32
2018-11-25T13:19:39.639Z,75.98
2018-11-25T13:22:10.050Z,76.25
2018-11-25T13:24:39.963Z,76.61
2018-11-25T13:27:09.537Z,76.64
2018-11-25T13:29:39.683Z,76.68
2018-11-25T13:32:09.284Z,77.19
2018-11-25T13:34:38.671Z,76.62
2018-11-25T13:37:07.492Z,77.48
2018-11-25T13:39:36.906Z,77.32
2018-11-25T13:42:16.057Z,77.31
2018-11-25T13:44:44.560Z,77.21
2018-11-25T13:47:14.790Z,77.71
2018-11-25T13:49:44.050Z,77.62
2018-11-25T13:52:12.820Z,77.14
2018-11-25T13:54:41.601Z,77.56
2018-11-25T13:57:10.341Z,77.36
2018-11-25T13:59:40.188Z,77.38
2018-11-25T14:02:09.847Z,77.38
2018-11-25T14:04:39.493Z,78.26
2018-11-25T14:07:08.857Z,77.20
2018-11-25T14:09:39.795Z,77.50
2018-11-25T14:12:08.802Z,78.16
2018-11-25T14:14:39.749Z,78.55
2018-11-25T14:17:09.347Z,78.03
2018-11-25T14:19:38.350Z,78.12
2018-11-25T14:22:08.459Z,78.26
2018-11-25T14:24:37.939Z,78.82
2018-11-25T14:27:08.897Z,78.24
2018-11-25T14:29:39.275Z,78.76
2018-11-25T14:32:09.116Z,78.88
2018-11-25T14:34:39.277Z,79.38
2018-11-25T14:37:08.328Z,78.70
2018-11-25T14:39:39.517Z,79.79
2018-11-25T14:42:08.797Z,80.05
2018-11-25T14:44:38.619Z,79.78
2018-11-25T14:47:08.387Z,80.40
2018-11-25T14:49:38.728Z,79.97
2018-11-25T14:52:08.091Z,80.26
2018-11-25T14:54:37.231Z,80.61
2018-11-25T14:57:07.559Z,80.49
2018-11-25T14:59:38.361Z,80.32
2018-11-25T15:02:09.243Z,81.24
2018-11-25T15:04:38.318Z,81.42
2018-11-25T15:07:07.492Z,81.25
2018-11-25T15:09:37.984Z,81.06
2018-11-25T15:12:07.392Z,81.05
2018-11-25T15:14:37.428Z,81.00
2018-11-25T15:17:08.365Z,81.15
2018-11-25T15:19:37.460Z,81.30
2018-11-25T15:22:07.687Z,81.52
2018-11-25T15:24:38.261Z,81.04
2018-11-25T15:27:08.969Z,81.00
2018-11-25T15:29:38.396Z,81.33
2018-11-25T15:32:07.392Z,81.59
2018-11-25T15:34:37.301Z,81.52
2018-11-25T15:37:07.036Z,82.13
2018-11-25T15:39:36.320Z,81.69
2018-11-25T15:42:05.234Z,81.51
2018-11-25T15:44:34.708Z,81.72
2018-11-25T15:47:08.507Z,82.27
2018-11-25T15:49:37.449Z,82.15
2018-11-25T15:52:06.538Z,82.56
2018-11-25T15:54:35.342Z,81.58
2018-11-25T15:57:04.197Z,82.41
2018-11-25T15:59:33.435Z,82.66
2018-11-25T16:02:06.636Z,82.29
2018-11-25T16:04:35.437Z,82.70
2018-11-25T16:07:04.557Z,82.92
2018-11-25T16:09:34.070Z,83.52
2018-11-25T16:12:04.014Z,83.24
2018-11-25T16:14:33.593Z,82.87
2018-11-25T16:17:03.188Z,82.67
2018-11-25T16:19:32.807Z,82.72
2018-11-25T16:22:01.583Z,82.98
2018-11-25T16:24:31.408Z,82.76
2018-11-25T16:27:00.795Z,82.87
2018-11-25T16:29:29.538Z,83.30
2018-11-25T16:31:58.847Z,82.81
2018-11-25T16:34:28.645Z,82.04
2018-11-25T16:36:57.449Z,82.72
2018-11-25T16:39:26.944Z,82.86
2018-11-25T16:41:55.769Z,83.84
2018-11-25T16:44:25.399Z,84.25
2018-11-25T16:46:54.950Z,83.96
2018-11-25T16:49:23.930Z,84.25
2018-11-25T16:51:52.793Z,83.15
2018-11-25T16:54:21.604Z,83.30
2018-11-25T16:56:50.388Z,82.74
2018-11-25T16:59:19.696Z,81.88
2018-11-25T17:01:48.956Z,82.99
2018-11-25T17:04:17.738Z,82.94
2018-11-25T17:06:48.051Z,83.48
2018-11-25T17:09:17.908Z,81.88
2018-11-25T17:11:46.672Z,82.07
2018-11-25T17:14:15.477Z,81.84
2018-11-25T17:16:44.655Z,82.35
2018-11-25T17:19:13.395Z,83.11
2018-11-25T17:21:42.221Z,82.90
2018-11-25T17:24:11.687Z,83.47
2018-11-25T17:26:40.701Z,83.18
2018-11-25T17:29:09.721Z,84.30
2018-11-25T17:31:39.092Z,83.97
2018-11-25T17:34:08.809Z,83.49
2018-11-25T17:36:38.536Z,82.82
2018-11-25T17:39:09.223Z,83.23
2018-11-25T17:41:40.127Z,83.45
2018-11-25T17:44:10.093Z,83.73
2018-11-25T17:46:40.462Z,84.99
2018-11-25T17:49:09.516Z,84.23
2018-11-25T17:51:38.926Z,85.04
2018-11-25T17:54:08.379Z,84.92
2018-11-25T17:56:37.312Z,85.17
2018-11-25T17:59:06.861Z,85.62
2018-11-25T18:01:36.236Z,85.72
2018-11-25T18:04:05.719Z,84.57
2018-11-25T18:06:34.505Z,82.76
2018-11-25T18:09:04.262Z,82.87
2018-11-25T18:11:33.105Z,82.77
2018-11-25T18:14:02.182Z,83.49
2018-11-25T18:16:31.963Z,84.57
2018-11-25T18:19:27.959Z,85.10
2018-11-25T18:22:03.007Z,84.03
2018-11-25T18:24:32.668Z,83.84
2018-11-25T18:27:01.472Z,83.84
2018-11-25T18:29:31.206Z,83.78
2018-11-25T18:32:00.034Z,84.55
2018-11-25T18:34:28.811Z,84.70
2018-11-25T18:36:58.608Z,85.03
2018-11-25T18:39:28.386Z,84.90
2018-11-25T18:41:57.379Z,84.88
2018-11-25T18:44:27.243Z,84.68
2018-11-25T18:46:57.879Z,83.23
2018-11-25T18:49:27.636Z,82.69
2018-11-25T18:51:56.624Z,82.08
2018-11-25T18:54:25.455Z,81.45
2018-11-25T18:56:54.302Z,83.21
2018-11-25T18:59:23.811Z,82.72
2018-11-25T19:02:03.828Z,83.24
2018-11-25T19:04:32.755Z,83.43
2018-11-25T19:07:01.486Z,84.41
2018-11-25T19:09:31.116Z,84.39
2018-11-25T19:11:59.880Z,84.89
2018-11-25T19:14:29.556Z,85.17
2018-11-25T19:16:59.409Z,84.15
2018-11-25T19:19:28.197Z,85.02
2018-11-25T19:21:57.143Z,83.93
2018-11-25T19:24:27.551Z,83.34
2018-11-25T19:26:57.257Z,83.56
2018-11-25T19:29:26.119Z,81.55
2018-11-25T19:31:54.964Z,82.77
2018-11-25T19:34:23.922Z,84.06
2018-11-25T19:36:52.775Z,84.07
2018-11-25T19:39:21.931Z,85.75
2018-11-25T19:41:51.307Z,84.18
2018-11-25T19:44:21.208Z,84.94
2018-11-25T19:46:51.443Z,85.31
2018-11-25T19:49:20.774Z,84.10
2018-11-25T19:51:49.597Z,84.88
2018-11-25T19:54:19.524Z,84.27
2018-11-25T19:56:48.577Z,82.49
2018-11-25T19:59:19.244Z,82.68
2018-11-25T20:01:48.739Z,82.63
2018-11-25T20:04:17.515Z,83.62
2018-11-25T20:06:47.112Z,83.18
2018-11-25T20:09:16.784Z,85.03
2018-11-25T20:11:45.634Z,85.31
2018-11-25T20:14:14.411Z,85.18
2018-11-25T20:16:49.117Z,86.05
2018-11-25T20:19:17.977Z,85.68
2018-11-25T20:21:51.991Z,83.24
2018-11-25T20:24:21.540Z,82.47
2018-11-25T20:26:55.411Z,81.21
2018-11-25T20:29:24.328Z,81.73
2018-11-25T20:31:58.731Z,82.09
2018-11-25T20:34:28.267Z,81.01
2018-11-25T20:36:57.151Z,81.73
2018-11-25T20:39:32.264Z,82.08
2018-11-25T20:42:01.098Z,82.29
2018-11-25T20:44:30.623Z,82.78
2018-11-25T20:47:07.886Z,83.65
2018-11-25T20:49:36.724Z,84.07
2018-11-25T20:52:11.031Z,83.31
2018-11-25T20:54:39.759Z,82.27
2018-11-25T20:57:08.500Z,82.39
2018-11-25T20:59:38.259Z,83.94
2018-11-25T21:02:07.497Z,83.74
2018-11-25T21:04:36.271Z,84.06
2018-11-25T21:07:05.115Z,83.70
2018-11-25T21:09:34.380Z,84.51
2018-11-25T21:12:03.119Z,83.76
2018-11-25T21:14:36.847Z,83.88
2018-11-25T21:17:06.006Z,83.72
2018-11-25T21:19:34.719Z,83.91
2018-11-25T21:22:04.609Z,83.95
2018-11-25T21:24:33.887Z,84.36
2018-11-25T21:27:02.607Z,85.30
2018-11-25T21:29:32.634Z,84.04
2018-11-25T21:32:01.397Z,83.53
2018-11-25T21:34:30.603Z,83.77
2018-11-25T21:36:59.716Z,84.53
2018-11-25T21:39:29.750Z,84.12
2018-11-25T21:41:58.612Z,84.67
2018-11-25T21:44:28.155Z,85.57
2018-11-25T21:46:57.492Z,84.51
2018-11-25T21:49:26.751Z,84.87
2018-11-25T21:51:55.502Z,84.25
2018-11-25T21:54:24.512Z,84.87
2018-11-25T21:56:53.370Z,83.68
2018-11-25T21:59:23.008Z,84.17
2018-11-25T22:01:53.894Z,85.86
2018-11-25T22:04:22.687Z,85.06
2018-11-25T22:06:51.471Z,84.58
2018-11-25T22:09:22.385Z,84.00
2018-11-25T22:11:51.177Z,85.29
2018-11-25T22:14:19.931Z,84.63
2018-11-25T22:16:49.171Z,85.01
2018-11-25T22:19:18.529Z,85.61
2018-11-25T22:21:47.243Z,84.70
2018-11-25T22:24:16.790Z,84.46
2018-11-25T22:26:45.571Z,84.91
2018-11-25T22:29:14.332Z,85.00
2018-11-25T22:31:43.064Z,85.27
2018-11-25T22:34:11.804Z,85.96
2018-11-25T22:36:40.848Z,84.93
2018-11-25T22:39:10.459Z,85.28
2018-11-25T22:41:39.756Z,84.82
2018-11-25T22:44:09.843Z,84.96
2018-11-25T22:46:40.027Z,83.40
2018-11-25T22:49:08.967Z,84.28
2018-11-25T22:51:38.526Z,84.24
2018-11-25T22:54:07.457Z,83.73
2018-11-25T22:56:36.515Z,83.10
2018-11-25T22:59:06.324Z,83.35
2018-11-25T23:01:36.747Z,83.79
2018-11-25T23:04:16.591Z,83.77
2018-11-25T23:07:02.963Z,84.07
2018-11-25T23:09:32.334Z,83.55
2018-11-25T23:12:01.128Z,83.81
2018-11-25T23:14:30.955Z,82.88
2018-11-25T23:17:00.616Z,83.20
2018-11-25T23:19:29.391Z,82.90
2018-11-25T23:21:58.124Z,82.65
2018-11-25T23:24:27.939Z,82.97
2018-11-25T23:26:57.046Z,82.67
2018-11-25T23:29:26.453Z,82.71
2018-11-25T23:31:56.320Z,84.04
2018-11-25T23:34:25.439Z,83.41
2018-11-25T23:36:54.867Z,82.47
2018-11-25T23:39:24.807Z,82.50
2018-11-25T23:41:54.336Z,83.14
2018-11-25T23:44:23.859Z,84.00
2018-11-25T23:46:54.356Z,81.69
2018-11-25T23:49:23.533Z,82.60
2018-11-25T23:51:52.962Z,83.63
2018-11-25T23:54:21.742Z,83.12
2018-11-25T23:56:50.509Z,82.37
2018-11-25T23:59:20.483Z,83.52
